Hansa Marburg — A8KV6 — position and weather

sailwx.info

Track history (hours):
 
Tides and Currents Weather Stations Pressure Air Temp Water Temp Dewpoint Dewpoint Depression Visibility Wind Speed Wind Dir Waves Ship Positions

Hansa Marburg

Last reported at 2015-Jan-12 11:27 UTC. Time now 2015-Mar-28 17:51 UTC.
Position N 36°08' W 005°25'.
Warning: this ship's position is months out of date.

Length 175 m; draft 9.5 m.

Type: Cargo ship. MMSI: 636091218.

Date/timePositionNaut miles runAvg speedWind from/ knotsBaromVisibWave heightAir tempDewpointWater temp
2015-Jan-12 11:27N 36°08' W 005°25'0 0.0
2015-Jan-12 10:33N 36°08' W 005°25'0 0.0
2015-Jan-12 09:33N 36°08' W 005°25'0 0.0
2015-Jan-12 08:21N 36°08' W 005°25'0 0.0
2015-Jan-12 07:12N 36°08' W 005°25'0 0.0
2015-Jan-12 06:15N 36°08' W 005°25'0 0.1
2015-Jan-12 05:32N 36°08' W 005°25'0 0.1
2015-Jan-12 04:32N 36°08' W 005°25'0 0.1
2015-Jan-12 02:32N 36°08' W 005°25'0 0.0
2015-Jan-12 01:23N 36°08' W 005°25'0 0.0
2015-Jan-12 00:24N 36°08' W 005°25'0 0.0
2015-Jan-11 23:24N 36°08' W 005°25'0 0.0
2015-Jan-11 22:30N 36°08' W 005°25'0 0.0
2015-Jan-11 21:33N 36°08' W 005°25'0 0.0
2015-Jan-11 19:20N 36°08' W 005°25'0 0.1
2015-Jan-11 18:32N 36°08' W 005°25'0 0.1
2015-Jan-11 17:31N 36°08' W 005°25'0 0.0
2015-Jan-11 16:31N 36°08' W 005°25'0 0.1
2015-Jan-11 15:31N 36°08' W 005°25'0 0.1
2015-Jan-11 14:31N 36°08' W 005°24'0 0.1
2015-Jan-11 13:10N 36°08' W 005°25'0 0.0
2015-Jan-11 12:16N 36°08' W 005°25'0 0.1
2015-Jan-11 11:31N 36°08' W 005°25'0 0.0
2015-Jan-11 10:22N 36°08' W 005°25'0 0.1
2015-Jan-11 09:25N 36°08' W 005°25'0 0.0
2015-Jan-11 08:34N 36°08' W 005°25'0 0.0
2015-Jan-11 07:12N 36°08' W 005°25'0 0.1
2015-Jan-11 06:30N 36°08' W 005°25'0 0.0
2015-Jan-11 05:33N 36°08' W 005°25'0 0.1
2015-Jan-11 04:33N 36°08' W 005°25'0 0.1
2015-Jan-11 03:33N 36°08' W 005°25'0 0.0
2015-Jan-11 02:33N 36°08' W 005°25'0 0.2
2015-Jan-11 01:30N 36°08' W 005°25'0 0.0
2015-Jan-11 00:33N 36°08' W 005°25'0 0.0
2015-Jan-10 23:27N 36°08' W 005°25'0 0.0
2015-Jan-10 22:32N 36°08' W 005°25'0 0.0
2015-Jan-10 21:32N 36°08' W 005°25'1 1.1
2015-Jan-10 20:25N 36°08' W 005°26'0 0.1
2015-Jan-10 17:23N 36°08' W 005°26'0 0.0
2015-Jan-10 16:26N 36°08' W 005°26'0 0.0
2015-Jan-10 15:26N 36°08' W 005°26'0 0.0
2015-Jan-10 14:14N 36°08' W 005°26'0 0.0
2015-Jan-10 09:25N 36°08' W 005°26'0 0.0
2015-Jan-10 08:12N 36°08' W 005°26'2 2.4
2015-Jan-10 07:28N 36°09' W 005°24'5 6.0
2015-Jan-10 06:33N 36°05' W 005°19'2 1.8
2015-Jan-10 05:33N 36°05' W 005°21'4 4.0
2015-Jan-10 04:33N 36°07' W 005°17'3 0.2
2015-Jan-09 14:33N 36°03' W 005°17'  
Track history (hours):
 
Tides and Currents Weather Stations Pressure Air Temp Water Temp Dewpoint Dewpoint Depression Visibility Wind Speed Wind Dir Waves Ship Positions

Hansa Marburg

Last reported at 2015-Jan-12 11:27 UTC. Time now 2015-Mar-28 17:51 UTC.
Position N 36°08' W 005°25'.
Warning: this ship's position is months out of date.

Length 175 m; draft 9.5 m.

Type: Cargo ship. MMSI: 636091218.

Date/timePositionNaut miles runAvg speedWind from/ knotsBaromVisibWave heightAir tempDewpointWater temp
2015-Jan-12 11:27N 36°08' W 005°25'0 0.0
2015-Jan-12 10:33N 36°08' W 005°25'0 0.0
2015-Jan-12 09:33N 36°08' W 005°25'0 0.0
2015-Jan-12 08:21N 36°08' W 005°25'0 0.0
2015-Jan-12 07:12N 36°08' W 005°25'0 0.0
2015-Jan-12 06:15N 36°08' W 005°25'0 0.1
2015-Jan-12 05:32N 36°08' W 005°25'0 0.1
2015-Jan-12 04:32N 36°08' W 005°25'0 0.1
2015-Jan-12 02:32N 36°08' W 005°25'0 0.0
2015-Jan-12 01:23N 36°08' W 005°25'0 0.0
2015-Jan-12 00:24N 36°08' W 005°25'0 0.0
2015-Jan-11 23:24N 36°08' W 005°25'0 0.0
2015-Jan-11 22:30N 36°08' W 005°25'0 0.0
2015-Jan-11 21:33N 36°08' W 005°25'0 0.0
2015-Jan-11 19:20N 36°08' W 005°25'0 0.1
2015-Jan-11 18:32N 36°08' W 005°25'0 0.1
2015-Jan-11 17:31N 36°08' W 005°25'0 0.0
2015-Jan-11 16:31N 36°08' W 005°25'0 0.1
2015-Jan-11 15:31N 36°08' W 005°25'0 0.1
2015-Jan-11 14:31N 36°08' W 005°24'0 0.1
2015-Jan-11 13:10N 36°08' W 005°25'0 0.0
2015-Jan-11 12:16N 36°08' W 005°25'0 0.1
2015-Jan-11 11:31N 36°08' W 005°25'0 0.0
2015-Jan-11 10:22N 36°08' W 005°25'0 0.1
2015-Jan-11 09:25N 36°08' W 005°25'0 0.0
2015-Jan-11 08:34N 36°08' W 005°25'0 0.0
2015-Jan-11 07:12N 36°08' W 005°25'0 0.1
2015-Jan-11 06:30N 36°08' W 005°25'0 0.0
2015-Jan-11 05:33N 36°08' W 005°25'0 0.1
2015-Jan-11 04:33N 36°08' W 005°25'0 0.1
2015-Jan-11 03:33N 36°08' W 005°25'0 0.0
2015-Jan-11 02:33N 36°08' W 005°25'0 0.2
2015-Jan-11 01:30N 36°08' W 005°25'0 0.0
2015-Jan-11 00:33N 36°08' W 005°25'0 0.0
2015-Jan-10 23:27N 36°08' W 005°25'0 0.0
2015-Jan-10 22:32N 36°08' W 005°25'0 0.0
2015-Jan-10 21:32N 36°08' W 005°25'1 1.1
2015-Jan-10 20:25N 36°08' W 005°26'0 0.1
2015-Jan-10 17:23N 36°08' W 005°26'0 0.0
2015-Jan-10 16:26N 36°08' W 005°26'0 0.0
2015-Jan-10 15:26N 36°08' W 005°26'0 0.0
2015-Jan-10 14:14N 36°08' W 005°26'0 0.0
2015-Jan-10 09:25N 36°08' W 005°26'0 0.0
2015-Jan-10 08:12N 36°08' W 005°26'2 2.4
2015-Jan-10 07:28N 36°09' W 005°24'5 6.0
2015-Jan-10 06:33N 36°05' W 005°19'2 1.8
2015-Jan-10 05:33N 36°05' W 005°21'4 4.0
2015-Jan-10 04:33N 36°07' W 005°17'3 0.2
2015-Jan-09 14:33N 36°03' W 005°17'  

Dump ship's entire track history